Time;durP1;ratioP1;P1;durP2;ratioP2;P2;SDS_P1;SDS_P2;PMS_P1;PMS_P2;Temp;Humidity;BMP_temperature;BMP_pressure;BME280_temperature;BME280_humidity;BME280_pressure;Samples;Min_cycle;Max_cycle;Signal;HPM_P1;HPM_P2
2022/11/22 00:03:35;;;;;;;0.85;0.85;;;;;;;-0.53;93.05;99427.31;10524282;28;20048;-76
2022/11/22 00:08:44;;;;;;;0.75;0.75;;;;;;;-0.41;93.36;99421.78;10525229;28;20044;-75
2022/11/22 00:13:46;;;;;;;3.00;2.20;;;;;;;-0.32;93.00;99411.84;10518767;28;20068;-75
2022/11/22 00:18:50;;;;;;;1.63;0.95;;;;;;;-0.25;93.34;99387.25;10506394;28;20044;-75
2022/11/22 00:23:56;;;;;;;3.05;2.17;;;;;;;-0.24;93.25;99376.13;10523343;28;20033;-75
2022/11/22 00:28:58;;;;;;;3.65;1.88;;;;;;;-0.17;93.67;99372.09;10524966;28;20311;-76
2022/11/22 00:33:59;;;;;;;3.03;2.58;;;;;;;-0.16;93.74;99359.28;10523873;28;20507;-76
2022/11/22 00:39:04;;;;;;;1.60;1.25;;;;;;;-0.14;93.63;99364.50;10524241;28;20044;-75
2022/11/22 00:44:07;;;;;;;5.55;2.28;;;;;;;-0.20;93.28;99360.84;10515643;28;20040;-76
2022/11/22 00:49:14;;;;;;;1.95;1.73;;;;;;;-0.14;93.69;99354.19;10510149;28;20078;-76
2022/11/22 00:54:16;;;;;;;2.80;1.85;;;;;;;-0.17;93.62;99354.09;10518655;28;20292;-75
2022/11/22 00:59:20;;;;;;;0.47;0.47;;;;;;;-0.16;93.54;99369.56;10523204;28;20039;-75
2022/11/22 01:04:23;;;;;;;2.58;2.03;;;;;;;-0.16;93.23;99361.00;10503390;28;20066;-75
2022/11/22 01:09:26;;;;;;;1.02;0.90;;;;;;;-0.22;93.42;99370.22;10520268;28;20040;-75
2022/11/22 01:14:28;;;;;;;2.58;1.83;;;;;;;-0.21;92.90;99372.00;10520871;28;20050;-75
2022/11/22 01:19:38;;;;;;;2.33;1.90;;;;;;;-0.21;93.21;99366.84;10521184;28;20433;-76
2022/11/22 01:24:42;;;;;;;1.75;1.25;;;;;;;-0.22;93.10;99352.22;10522974;28;20040;-75
2022/11/22 01:29:50;;;;;;;2.25;1.42;;;;;;;-0.20;92.69;99355.72;10505074;28;20036;-75
2022/11/22 01:34:55;;;;;;;2.67;1.20;;;;;;;-0.21;92.88;99351.41;10521918;28;20044;-76
2022/11/22 01:40:05;;;;;;;1.75;1.52;;;;;;;-0.20;92.91;99350.56;10517787;28;20465;-75
2022/11/22 01:45:29;;;;;;;1.00;0.80;;;;;;;-0.19;92.44;99341.16;10519985;28;20394;-76
2022/11/22 01:50:44;;;;;;;4.13;2.10;;;;;;;-0.19;92.45;99346.31;10523013;28;20611;-76
2022/11/22 01:55:51;;;;;;;0.20;0.20;;;;;;;-0.24;92.23;99341.00;10506187;28;20131;-75
2022/11/22 02:00:54;;;;;;;1.13;1.02;;;;;;;-0.25;92.07;99334.09;10520590;28;20039;-75
2022/11/22 02:06:02;;;;;;;1.40;1.02;;;;;;;-0.30;92.49;99330.47;10504726;28;20040;-75
2022/11/22 02:11:07;;;;;;;2.83;2.15;;;;;;;-0.31;92.27;99336.44;10521982;28;20036;-75
2022/11/22 02:16:11;;;;;;;1.30;1.08;;;;;;;-0.25;92.17;99310.94;10529717;28;20503;-75
2022/11/22 02:21:18;;;;;;;0.93;0.77;;;;;;;-0.28;92.25;99300.53;10541148;28;20695;-75
2022/11/22 02:26:26;;;;;;;2.58;0.60;;;;;;;-0.31;92.02;99310.72;10535788;28;20044;-75
2022/11/22 02:31:41;;;;;;;0.95;0.93;;;;;;;-0.31;92.14;99297.00;10533968;28;20044;-75
2022/11/22 02:36:48;;;;;;;2.20;1.33;;;;;;;-0.25;91.86;99289.50;10533876;28;20483;-75
2022/11/22 02:41:52;;;;;;;2.13;1.90;;;;;;;-0.28;92.12;99279.97;10508007;28;20040;-75
2022/11/22 02:46:54;;;;;;;2.40;2.15;;;;;;;-0.26;92.20;99283.44;10509711;28;20061;-78
2022/11/22 02:51:56;;;;;;;2.47;1.05;;;;;;;-0.26;92.00;99283.44;10527194;28;20036;-77
2022/11/22 02:56:57;;;;;;;0.45;0.45;;;;;;;-0.29;92.50;99273.06;10508390;28;20043;-78
2022/11/22 03:01:59;;;;;;;2.85;1.30;;;;;;;-0.30;92.67;99278.13;10508687;28;20044;-77
2022/11/22 03:07:04;;;;;;;3.85;1.90;;;;;;;-0.26;92.28;99273.16;10528591;28;20039;-77
2022/11/22 03:12:06;;;;;;;1.48;1.38;;;;;;;-0.20;92.49;99275.09;10525995;28;20043;-77
2022/11/22 03:17:07;;;;;;;1.35;1.25;;;;;;;-0.22;92.68;99284.47;10526253;28;20032;-77
2022/11/22 03:22:09;;;;;;;1.65;1.52;;;;;;;-0.24;92.99;99280.94;10505717;28;20040;-77
2022/11/22 03:27:12;;;;;;;2.28;1.10;;;;;;;-0.21;93.00;99271.66;10526168;28;20032;-78
2022/11/22 03:32:13;;;;;;;1.58;1.27;;;;;;;-0.21;93.28;99276.78;10507433;28;20380;-78
2022/11/22 03:37:15;;;;;;;3.88;2.40;;;;;;;-0.17;93.12;99277.75;10525611;28;20130;-79
2022/11/22 03:42:17;;;;;;;2.33;1.80;;;;;;;-0.15;93.52;99273.56;10517179;28;20039;-78
2022/11/22 03:47:22;;;;;;;1.08;1.02;;;;;;;-0.11;93.75;99277.13;10526249;28;20539;-78
2022/11/22 03:52:24;;;;;;;1.70;1.50;;;;;;;-0.09;93.81;99273.78;10524697;28;20635;-77
2022/11/22 03:57:25;;;;;;;3.60;1.50;;;;;;;-0.08;93.90;99267.78;10525394;28;20040;-78
2022/11/22 04:02:27;;;;;;;10.38;4.05;;;;;;;-0.06;93.96;99278.13;10484434;28;20055;-78
2022/11/22 04:07:28;;;;;;;2.13;1.52;;;;;;;-0.02;94.52;99272.28;10505684;28;20040;-78
2022/11/22 04:12:30;;;;;;;2.35;1.80;;;;;;;0.01;93.99;99261.22;10494638;28;20048;-78
2022/11/22 04:17:40;;;;;;;3.55;2.47;;;;;;;0.04;94.30;99245.91;10506086;28;20048;-78
2022/11/22 04:22:41;;;;;;;3.03;2.58;;;;;;;0.06;94.18;99249.38;10504265;28;20785;-78
2022/11/22 04:27:43;;;;;;;0.90;0.85;;;;;;;0.11;94.38;99260.75;10522537;28;20044;-78
2022/11/22 04:32:44;;;;;;;1.63;1.30;;;;;;;0.09;94.16;99265.84;10522835;28;20032;-78
2022/11/22 04:37:50;;;;;;;1.35;0.82;;;;;;;0.13;94.38;99259.94;10489357;28;20066;-77
2022/11/22 04:48:12;;;;;;;2.63;1.70;;;;;;;0.18;94.40;99260.09;10527400;28;20398;-79
2022/11/22 04:53:15;;;;;;;2.70;2.13;;;;;;;0.17;94.26;99263.50;10505599;28;20036;-77
2022/11/22 04:58:17;;;;;;;0.50;0.50;;;;;;;0.26;94.43;99268.09;10500699;28;20051;-77
2022/11/22 05:03:19;;;;;;;0.77;0.75;;;;;;;0.27;94.46;99277.56;10487006;28;20119;-77
2022/11/22 05:08:21;;;;;;;2.90;2.50;;;;;;;0.26;94.60;99275.84;10503409;28;20056;-78
2022/11/22 05:13:35;;;;;;;2.55;2.00;;;;;;;0.29;94.83;99279.38;10503343;28;20051;-78
2022/11/22 05:18:36;;;;;;;0.50;0.50;;;;;;;0.28;94.66;99282.75;10502979;28;20072;-77
2022/11/22 05:23:53;;;;;;;3.28;1.55;;;;;;;0.36;94.98;99288.16;10502671;28;20048;-77
2022/11/22 05:28:57;;;;;;;4.68;2.22;;;;;;;0.39;94.90;99295.13;10521131;28;20497;-76
2022/11/22 05:33:58;;;;;;;2.60;1.92;;;;;;;0.34;95.04;99290.69;10520017;28;20039;-76
2022/11/22 05:39:01;;;;;;;4.22;2.33;;;;;;;0.39;95.17;99278.00;10520754;28;20052;-76
2022/11/22 05:44:02;;;;;;;3.58;2.80;;;;;;;0.45;95.04;99293.66;10520019;28;20039;-76
2022/11/22 05:49:04;;;;;;;2.55;1.13;;;;;;;0.47;95.02;99284.28;10520285;28;20039;-76
2022/11/22 05:54:05;;;;;;;2.05;1.50;;;;;;;0.45;95.19;99285.94;10519820;28;20433;-76
2022/11/22 05:59:07;;;;;;;1.88;1.63;;;;;;;0.46;94.90;99300.53;10502917;28;20045;-76
2022/11/22 06:04:10;;;;;;;2.47;1.70;;;;;;;0.50;94.93;99299.81;10518578;28;20047;-76
2022/11/22 06:09:12;;;;;;;5.40;2.35;;;;;;;0.55;95.01;99312.84;10519810;28;20044;-76
2022/11/22 06:14:14;;;;;;;3.33;2.13;;;;;;;0.57;95.36;99294.88;10519121;28;20032;-77
2022/11/22 06:19:16;;;;;;;2.80;2.33;;;;;;;0.57;95.26;99311.22;10519615;28;20044;-77
2022/11/22 06:24:17;;;;;;;2.85;2.55;;;;;;;0.60;95.46;99308.75;10519498;28;20510;-77
2022/11/22 06:29:19;;;;;;;2.40;2.17;;;;;;;0.65;95.28;99294.31;10519731;28;20055;-76
2022/11/22 06:34:20;;;;;;;2.42;1.35;;;;;;;0.69;95.66;99298.75;10501023;28;20079;-77
2022/11/22 06:39:22;;;;;;;3.55;2.58;;;;;;;0.75;95.59;99300.66;10502209;28;20040;-77
2022/11/22 06:44:24;;;;;;;6.97;2.22;;;;;;;0.81;95.63;99297.38;10500097;28;20048;-77
2022/11/22 06:49:25;;;;;;;1.55;1.25;;;;;;;0.80;95.39;99293.94;10500895;28;20055;-76
2022/11/22 06:54:27;;;;;;;2.33;1.38;;;;;;;0.83;95.54;99295.75;10500650;28;20051;-77
2022/11/22 06:59:29;;;;;;;2.60;2.00;;;;;;;0.84;95.66;99306.09;10516722;28;20060;-78
2022/11/22 07:04:31;;;;;;;4.13;2.85;;;;;;;0.88;95.73;99307.94;10524094;28;20040;-77
2022/11/22 07:09:33;;;;;;;5.65;1.85;;;;;;;0.91;95.42;99314.88;10524920;28;20563;-77
2022/11/22 07:14:36;;;;;;;1.98;1.42;;;;;;;0.96;95.60;99309.88;10517721;28;20048;-77
2022/11/22 07:19:37;;;;;;;1.50;1.38;;;;;;;1.01;95.52;99308.34;10525008;28;20046;-77
2022/11/22 07:24:39;;;;;;;6.57;2.80;;;;;;;1.06;95.55;99327.41;10491221;28;20522;-77
2022/11/22 07:29:41;;;;;;;1.55;1.42;;;;;;;1.08;95.50;99330.88;10506798;28;20044;-77
2022/11/22 07:34:42;;;;;;;1.98;1.20;;;;;;;1.09;95.81;99348.13;10525433;28;20040;-77
2022/11/22 07:39:44;;;;;;;1.88;1.40;;;;;;;1.13;95.91;99360.28;10522195;28;20040;-77
2022/11/22 07:44:46;;;;;;;1.52;1.05;;;;;;;1.16;95.51;99355.22;10525036;28;20046;-77
2022/11/22 07:49:47;;;;;;;1.98;1.48;;;;;;;1.12;96.38;99355.94;10525025;28;20135;-76
2022/11/22 07:54:49;;;;;;;2.40;1.25;;;;;;;1.17;95.92;99356.97;10523956;28;20083;-76
2022/11/22 07:59:50;;;;;;;1.33;1.23;;;;;;;1.23;95.89;99351.13;10524218;28;20500;-76
2022/11/22 08:04:52;;;;;;;4.20;2.30;;;;;;;1.26;95.79;99365.81;10525189;28;20403;-76
2022/11/22 08:09:54;;;;;;;3.53;2.97;;;;;;;1.34;96.06;99364.38;10523660;28;20147;-76
2022/11/22 08:14:55;;;;;;;3.97;2.70;;;;;;;1.42;95.80;99365.47;10489327;28;20036;-76
2022/11/22 08:19:57;;;;;;;1.17;1.08;;;;;;;1.49;96.03;99382.91;10524492;28;20051;-76
2022/11/22 08:24:58;;;;;;;0.65;0.63;;;;;;;1.57;95.53;99384.00;10501616;28;20040;-76
2022/11/22 08:30:00;;;;;;;2.40;2.03;;;;;;;1.64;95.93;99386.78;10522099;28;20090;-76
2022/11/22 08:35:02;;;;;;;1.85;1.23;;;;;;;1.68;95.96;99383.47;10495767;28;20055;-76
2022/11/22 08:40:06;;;;;;;1.42;1.33;;;;;;;1.69;95.81;99392.97;10523284;28;20130;-76
2022/11/22 08:45:08;;;;;;;2.15;1.95;;;;;;;1.79;95.97;99387.25;10504547;28;20036;-77
2022/11/22 08:50:10;;;;;;;3.88;1.73;;;;;;;1.83;96.31;99396.84;10520578;28;20054;-77
2022/11/22 08:55:12;;;;;;;6.63;2.58;;;;;;;1.91;96.28;99395.34;10505347;28;20038;-77
2022/11/22 09:00:14;;;;;;;2.30;1.52;;;;;;;1.93;96.14;99397.97;10520812;28;20048;-76
2022/11/22 09:05:15;;;;;;;0.65;0.65;;;;;;;2.00;96.04;99409.34;10503157;28;20506;-76
2022/11/22 09:10:17;;;;;;;1.45;0.88;;;;;;;2.03;96.29;99412.03;10489689;28;20259;-77
2022/11/22 09:15:19;;;;;;;1.15;0.90;;;;;;;2.03;96.25;99409.47;10491281;28;20035;-77
2022/11/22 09:20:20;;;;;;;2.38;1.58;;;;;;;2.12;96.28;99410.59;10506640;28;20054;-77
2022/11/22 09:25:24;;;;;;;2.65;2.15;;;;;;;2.21;96.23;99409.97;10483707;28;20467;-77
2022/11/22 09:30:25;;;;;;;0.88;0.65;;;;;;;2.33;96.48;99408.56;10484967;28;20040;-76
2022/11/22 09:35:27;;;;;;;3.40;2.67;;;;;;;2.41;96.66;99425.16;10483292;28;20138;-76
2022/11/22 09:40:28;;;;;;;4.57;2.30;;;;;;;2.50;95.97;99417.66;10496791;28;20043;-76
2022/11/22 09:45:59;;;;;;;1.73;0.68;;;;;;;2.65;96.31;99424.97;10518033;28;20036;-77
2022/11/22 09:51:07;;;;;;;2.97;2.40;;;;;;;2.77;96.20;99424.44;10516262;28;20050;-77
2022/11/22 09:56:15;;;;;;;2.08;1.20;;;;;;;3.09;96.47;99414.03;10479576;28;20043;-78
2022/11/22 10:01:30;;;;;;;2.20;2.00;;;;;;;3.40;96.39;99419.97;10456630;28;20079;-76
2022/11/22 10:06:36;;;;;;;0.98;0.88;;;;;;;3.70;96.39;99422.41;10471548;28;20044;-78
2022/11/22 10:11:52;;;;;;;3.13;2.53;;;;;;;3.83;95.99;99420.97;10458573;28;20125;-77
2022/11/22 10:17:19;;;;;;;1.10;1.00;;;;;;;4.07;95.70;99416.31;10506729;28;20039;-76
2022/11/22 10:22:21;;;;;;;0.77;0.77;;;;;;;4.27;95.45;99423.63;10510205;28;20044;-78
2022/11/22 10:27:32;;;;;;;1.92;1.67;;;;;;;4.41;95.23;99421.31;10518043;28;20192;-77
2022/11/22 10:32:47;;;;;;;3.50;1.98;;;;;;;4.60;94.71;99422.56;10456605;28;20041;-76
2022/11/22 10:37:57;;;;;;;1.63;1.08;;;;;;;4.59;94.49;99423.41;10476869;28;20040;-76
2022/11/22 10:43:11;;;;;;;4.70;2.78;;;;;;;4.56;94.06;99425.94;10516954;28;20059;-77
2022/11/22 10:48:43;;;;;;;3.50;1.27;;;;;;;4.61;93.85;99434.69;10507806;28;20040;-76
2022/11/22 10:54:32;;;;;;;1.67;1.00;;;;;;;4.66;93.53;99432.19;10516900;28;20764;-76
2022/11/22 11:00:08;;;;;;;4.10;1.80;;;;;;;4.76;93.28;99424.59;10478610;28;20044;-78
2022/11/22 11:05:16;;;;;;;1.23;0.93;;;;;;;5.21;93.21;99417.59;10514370;28;20056;-76
2022/11/22 11:10:25;;;;;;;3.58;2.75;;;;;;;5.44;92.94;99417.09;10496418;28;20109;-77
2022/11/22 11:15:41;;;;;;;3.65;2.20;;;;;;;5.60;92.46;99413.00;10526391;28;20446;-77
2022/11/22 11:20:46;;;;;;;2.70;1.90;;;;;;;5.74;92.25;99410.63;10518686;28;20044;-78
2022/11/22 11:25:48;;;;;;;3.47;2.25;;;;;;;5.92;91.76;99404.81;10526720;28;20047;-76
2022/11/22 11:31:12;;;;;;;2.88;2.03;;;;;;;6.13;91.19;99406.88;10507332;28;20272;-79
2022/11/22 11:36:31;;;;;;;4.07;2.00;;;;;;;6.05;90.74;99411.97;10513573;28;20677;-77
2022/11/22 11:41:41;;;;;;;1.67;1.15;;;;;;;5.94;90.31;99405.72;10500061;28;20423;-79
2022/11/22 11:46:45;;;;;;;2.63;1.55;;;;;;;5.94;90.08;99405.72;10506193;28;20055;-80
2022/11/22 11:52:17;;;;;;;2.05;1.02;;;;;;;5.96;90.01;99399.69;10495135;28;20040;-78
2022/11/22 11:57:27;;;;;;;2.28;1.38;;;;;;;5.88;89.85;99406.50;10476932;28;20040;-76
2022/11/22 12:02:39;;;;;;;2.30;1.63;;;;;;;6.01;89.83;99412.78;10442586;28;20136;-76
2022/11/22 12:07:44;;;;;;;2.20;1.70;;;;;;;6.22;89.86;99411.31;10474606;28;20048;-77
2022/11/22 12:12:50;;;;;;;6.03;1.08;;;;;;;6.42;89.80;99407.22;10502073;28;20048;-80
2022/11/22 12:18:10;;;;;;;1.65;1.08;;;;;;;6.49;89.55;99403.84;10521544;28;20569;-78
2022/11/22 12:23:37;;;;;;;3.60;1.80;;;;;;;6.57;89.49;99397.84;10490896;28;20050;-77
2022/11/22 12:28:39;;;;;;;4.55;2.17;;;;;;;6.70;89.40;99395.41;10520703;28;20499;-76
2022/11/22 12:33:43;;;;;;;3.63;1.92;;;;;;;6.86;88.81;99391.22;10484981;28;20105;-77
2022/11/22 12:38:48;;;;;;;2.53;1.73;;;;;;;6.93;88.59;99396.50;10499375;28;20046;-78
2022/11/22 12:44:00;;;;;;;0.75;0.65;;;;;;;7.01;88.25;99395.72;10488902;28;20525;-76
2022/11/22 12:49:17;;;;;;;0.40;0.40;;;;;;;6.98;88.06;99400.00;10493464;28;20041;-76
2022/11/22 12:54:27;;;;;;;3.33;1.35;;;;;;;6.97;87.50;99406.09;10500963;28;20036;-76
2022/11/22 12:59:57;;;;;;;1.85;1.05;;;;;;;6.92;87.85;99394.75;10503067;28;20059;-76
2022/11/22 13:05:30;;;;;;;3.35;1.80;;;;;;;6.89;87.63;99395.56;10513636;28;20037;-75
2022/11/22 13:10:40;;;;;;;0.55;0.55;;;;;;;6.86;87.69;99404.25;10502059;28;20061;-76
2022/11/22 13:15:44;;;;;;;3.33;1.65;;;;;;;6.90;87.87;99402.53;10488085;28;20036;-76
2022/11/22 13:20:57;;;;;;;1.50;1.05;;;;;;;6.92;87.78;99399.94;10519314;28;20101;-76
2022/11/22 13:26:18;;;;;;;1.83;1.05;;;;;;;6.93;87.30;99401.69;10515060;28;20044;-75
2022/11/22 13:31:20;;;;;;;1.15;0.70;;;;;;;6.93;87.15;99399.09;10503003;28;20558;-75
2022/11/22 13:36:25;;;;;;;1.08;0.68;;;;;;;6.95;87.32;99415.59;10520217;28;20094;-76
2022/11/22 13:41:38;;;;;;;4.70;1.10;;;;;;;6.99;87.04;99409.56;10521193;28;20047;-76
2022/11/22 13:47:02;;;;;;;1.17;0.85;;;;;;;6.89;87.11;99417.28;10520913;28;20054;-76
2022/11/22 13:52:24;;;;;;;2.20;1.42;;;;;;;6.83;87.03;99425.03;10513516;28;20065;-76
2022/11/22 13:57:35;;;;;;;2.30;1.48;;;;;;;6.82;87.08;99425.88;10501888;28;20864;-75
2022/11/22 14:02:49;;;;;;;2.65;1.35;;;;;;;6.82;86.89;99420.66;10483349;28;20048;-75
2022/11/22 14:07:54;;;;;;;1.33;0.75;;;;;;;6.85;86.26;99414.63;10501540;28;20108;-77
2022/11/22 14:12:59;;;;;;;;;;;;;;;6.85;85.63;99405.09;10519296;28;20036;-75
2022/11/22 14:18:33;;;;;;;1.80;1.00;;;;;;;6.81;85.41;99418.06;10470653;28;19936;-75
2022/11/22 14:23:56;;;;;;;3.75;1.63;;;;;;;6.71;85.64;99404.06;10482570;28;20041;-75
2022/11/22 14:29:45;;;;;;;4.55;1.73;;;;;;;6.47;86.24;99397.75;10502257;28;20056;-76
2022/11/22 14:35:03;;;;;;;2.67;1.38;;;;;;;6.25;86.82;99403.56;10480759;28;20054;-78
2022/11/22 14:40:07;;;;;;;2.40;1.58;;;;;;;6.13;87.24;99397.34;10511322;28;20511;-75
2022/11/22 14:45:09;;;;;;;2.35;1.60;;;;;;;6.04;87.62;99407.63;10483711;28;20094;-75
2022/11/22 14:50:31;;;;;;;2.72;1.58;;;;;;;5.93;87.65;99411.75;10518831;28;20586;-75
2022/11/22 14:55:34;;;;;;;3.47;1.75;;;;;;;5.84;88.11;99417.72;10519096;28;20052;-75
2022/11/22 15:00:47;;;;;;;2.65;1.33;;;;;;;5.75;88.40;99410.66;10518680;28;20051;-76
2022/11/22 15:06:15;;;;;;;4.63;1.75;;;;;;;5.71;88.52;99413.19;10508519;28;20554;-76
2022/11/22 15:11:42;;;;;;;2.47;1.33;;;;;;;5.67;88.88;99420.03;10498214;28;20135;-76
2022/11/22 15:16:44;;;;;;;3.95;1.52;;;;;;;5.64;88.92;99413.09;10517327;28;20171;-77
2022/11/22 15:22:11;;;;;;;2.67;1.58;;;;;;;5.61;89.12;99422.56;10477844;28;20236;-75
2022/11/22 15:27:45;;;;;;;2.28;0.93;;;;;;;5.60;89.24;99421.69;10509879;28;20044;-74
2022/11/22 15:33:32;;;;;;;0.88;0.63;;;;;;;5.52;89.43;99427.59;10516807;28;20507;-75
2022/11/22 15:38:57;;;;;;;2.65;1.42;;;;;;;5.52;89.38;99428.47;10506248;28;20051;-75
2022/11/22 15:44:20;;;;;;;2.05;1.15;;;;;;;5.52;89.87;99427.59;10518240;28;20036;-74
2022/11/22 15:49:41;;;;;;;2.20;1.50;;;;;;;5.48;89.83;99437.94;10522678;28;20136;-78
2022/11/22 15:55:14;;;;;;;1.58;0.93;;;;;;;5.48;89.74;99448.34;10515910;28;20527;-76
2022/11/22 16:00:36;;;;;;;1.40;1.08;;;;;;;5.45;89.93;99449.97;10504243;28;20109;-76
2022/11/22 16:05:37;;;;;;;1.85;1.35;;;;;;;5.45;90.09;99442.19;10505868;28;20480;-77
2022/11/22 16:11:00;;;;;;;1.88;1.05;;;;;;;5.51;90.23;99451.81;10521243;28;20063;-79
2022/11/22 16:16:05;;;;;;;1.45;0.88;;;;;;;5.46;90.16;99434.47;10524370;28;20044;-76
2022/11/22 16:21:10;;;;;;;1.35;1.02;;;;;;;5.48;90.13;99435.34;10523537;28;20086;-76
2022/11/22 16:26:28;;;;;;;1.13;0.88;;;;;;;5.49;90.34;99438.81;10522867;28;20086;-76
2022/11/22 16:31:30;;;;;;;2.47;1.02;;;;;;;5.44;90.20;99441.34;10524237;28;20083;-75
2022/11/22 16:36:32;;;;;;;2.60;0.98;;;;;;;5.44;90.35;99436.16;10524627;28;20044;-74
2022/11/22 16:41:34;;;;;;;0.90;0.80;;;;;;;5.40;90.26;99428.28;10505571;28;20032;-76
2022/11/22 16:46:35;;;;;;;2.95;1.08;;;;;;;5.34;90.28;99429.06;10523371;28;20764;-76
2022/11/22 16:51:43;;;;;;;1.60;1.10;;;;;;;5.22;90.15;99423.66;10505212;28;20496;-75
2022/11/22 16:56:48;;;;;;;1.88;1.20;;;;;;;5.16;90.30;99428.75;10522335;28;20036;-75
2022/11/22 17:01:49;;;;;;;2.40;1.17;;;;;;;5.05;90.47;99432.03;10495100;28;20453;-77
2022/11/22 17:06:53;;;;;;;1.23;0.98;;;;;;;5.03;90.46;99448.41;10520389;28;20048;-74
2022/11/22 17:11:55;;;;;;;2.10;1.52;;;;;;;4.95;90.76;99448.28;10500668;28;20684;-75
2022/11/22 17:16:57;;;;;;;1.83;1.00;;;;;;;4.96;90.74;99460.41;10507828;28;20032;-76
2022/11/22 17:21:59;;;;;;;0.77;0.73;;;;;;;4.91;90.84;99468.09;10521062;28;20055;-75
2022/11/22 17:27:01;;;;;;;1.25;0.63;;;;;;;4.88;90.53;99470.66;10520327;28;20496;-76
2022/11/22 17:32:03;;;;;;;0.88;0.70;;;;;;;4.76;90.97;99465.22;10521227;28;20031;-78
2022/11/22 17:37:10;;;;;;;1.95;1.13;;;;;;;4.70;90.77;99468.56;10488198;28;20040;-77
2022/11/22 17:42:18;;;;;;;1.88;1.20;;;;;;;4.64;90.81;99476.22;10522108;28;20059;-75
2022/11/22 17:47:20;;;;;;;3.47;1.52;;;;;;;4.70;91.00;99484.13;10502792;28;20085;-75
2022/11/22 17:52:21;;;;;;;1.55;1.02;;;;;;;4.75;91.03;99490.25;10501385;28;20507;-76
2022/11/22 17:57:26;;;;;;;1.17;0.95;;;;;;;4.80;91.13;99492.09;10498584;28;20201;-75
2022/11/22 18:02:31;;;;;;;2.38;1.23;;;;;;;4.80;90.98;99492.09;10518256;28;20112;-76
2022/11/22 18:07:37;;;;;;;0.68;0.68;;;;;;;4.80;91.04;99492.09;10520271;28;20086;-76
2022/11/22 18:12:39;;;;;;;1.58;0.88;;;;;;;4.80;90.94;99489.50;10500587;28;20529;-76
2022/11/22 18:18:01;;;;;;;1.88;1.42;;;;;;;4.80;90.92;99484.31;10518207;28;20125;-76
2022/11/22 18:23:02;;;;;;;3.53;1.13;;;;;;;4.77;90.98;99490.28;10502019;28;20048;-76
2022/11/22 18:28:04;;;;;;;1.60;0.93;;;;;;;4.78;90.91;99494.66;10522499;28;20040;-75
2022/11/22 18:33:05;;;;;;;0.90;0.60;;;;;;;4.77;90.91;99496.38;10520458;28;20044;-75
2022/11/22 18:38:07;;;;;;;4.05;2.03;;;;;;;4.77;90.59;99498.06;10502881;28;20557;-76
2022/11/22 18:43:08;;;;;;;1.52;1.08;;;;;;;4.64;90.47;99496.97;10509382;28;20037;-77
2022/11/22 18:48:10;;;;;;;1.13;0.88;;;;;;;4.59;90.63;99498.56;10500320;28;20069;-75
2022/11/22 18:53:12;;;;;;;1.80;1.27;;;;;;;4.51;90.77;99502.75;10515888;28;20624;-77
2022/11/22 18:58:13;;;;;;;1.80;1.40;;;;;;;4.46;90.70;99507.84;10501770;28;20043;-76
2022/11/22 19:03:15;;;;;;;3.25;0.80;;;;;;;4.46;90.80;99505.25;10526461;28;20492;-75
2022/11/22 19:08:16;;;;;;;1.17;0.75;;;;;;;4.41;90.83;99497.38;10525736;28;20048;-75
2022/11/22 19:13:19;;;;;;;1.50;0.93;;;;;;;4.35;90.91;99489.44;10525686;28;20039;-75
2022/11/22 19:18:21;;;;;;;0.95;0.75;;;;;;;4.31;90.66;99489.34;10525624;28;20474;-75
2022/11/22 19:23:23;;;;;;;1.15;0.70;;;;;;;4.19;90.52;99497.75;10523307;28;20109;-75
2022/11/22 19:28:27;;;;;;;3.17;1.60;;;;;;;4.13;90.93;99490.72;10523692;28;20044;-76
2022/11/22 19:33:31;;;;;;;1.23;0.82;;;;;;;4.03;90.98;99487.03;10524167;28;20048;-76
2022/11/22 19:38:33;;;;;;;1.63;1.08;;;;;;;4.04;90.92;99483.59;10522321;28;20415;-76
2022/11/22 19:43:35;;;;;;;0.98;0.68;;;;;;;4.07;91.25;99481.09;10494472;28;20123;-75
2022/11/22 19:48:37;;;;;;;1.65;1.00;;;;;;;4.04;91.20;99485.34;10524481;28;20040;-75
2022/11/22 19:53:48;;;;;;;0.68;0.63;;;;;;;3.98;91.17;99488.66;10523510;28;20561;-75
2022/11/22 19:58:52;;;;;;;1.88;1.38;;;;;;;3.98;91.20;99499.00;10504544;28;20036;-75
2022/11/22 20:04:00;;;;;;;0.65;0.57;;;;;;;3.94;91.30;99493.72;10521964;28;20079;-74
2022/11/22 20:09:08;;;;;;;0.70;0.40;;;;;;;3.88;91.41;99500.50;10516796;28;20052;-75
2022/11/22 20:14:12;;;;;;;1.40;1.15;;;;;;;3.86;91.26;99496.16;10486331;28;20032;-76
2022/11/22 20:19:14;;;;;;;1.88;0.88;;;;;;;3.83;91.34;99504.72;10486762;28;20128;-77
2022/11/22 20:24:16;;;;;;;3.15;1.25;;;;;;;3.82;91.59;99502.09;10523036;28;20051;-76
2022/11/22 20:29:21;;;;;;;1.55;0.60;;;;;;;3.87;91.12;99510.81;10515927;28;20423;-76
2022/11/22 20:34:23;;;;;;;2.55;0.98;;;;;;;3.91;91.38;99511.78;10514646;28;20036;-76
2022/11/22 20:39:25;;;;;;;0.30;0.30;;;;;;;3.92;91.39;99514.41;10520031;28;20044;-75
2022/11/22 20:44:32;;;;;;;1.23;0.75;;;;;;;3.91;91.57;99502.28;10521063;28;20047;-75
2022/11/22 20:49:37;;;;;;;1.60;0.85;;;;;;;3.98;91.62;99508.47;10496681;28;20048;-73
2022/11/22 20:54:47;;;;;;;0.35;0.35;;;;;;;4.10;91.54;99507.88;10520352;28;20543;-73
2022/11/22 20:59:48;;;;;;;0.47;0.47;;;;;;;4.17;91.46;99504.59;10519984;28;20462;-74
2022/11/22 21:04:50;;;;;;;0.25;0.25;;;;;;;4.22;91.28;99505.59;10511370;28;20032;-73
2022/11/22 21:09:51;;;;;;;1.15;0.60;;;;;;;4.28;91.16;99505.72;10511081;28;20047;-74
2022/11/22 21:14:53;;;;;;;1.30;0.55;;;;;;;4.33;91.00;99500.63;10514490;28;20044;-74
2022/11/22 21:19:55;;;;;;;0.10;0.10;;;;;;;4.40;90.99;99508.56;10502990;28;20515;-74
2022/11/22 21:24:56;;;;;;;1.23;0.98;;;;;;;4.46;90.78;99505.25;10483113;28;20036;-73
2022/11/22 21:30:01;;;;;;;0.38;0.38;;;;;;;4.49;90.72;99505.31;10482328;28;20119;-74
2022/11/22 21:35:06;;;;;;;0.55;0.47;;;;;;;4.51;90.58;99505.34;10493528;28;20461;-73
2022/11/22 21:40:09;;;;;;;0.47;0.40;;;;;;;4.59;90.28;99514.13;10519427;28;20044;-74
2022/11/22 21:45:13;;;;;;;0.47;0.47;;;;;;;4.68;90.20;99514.31;10519739;28;20048;-74
2022/11/22 21:50:15;;;;;;;0.68;0.63;;;;;;;4.66;90.04;99513.44;10500786;28;20244;-74
2022/11/22 21:55:20;;;;;;;0.30;0.30;;;;;;;4.73;90.07;99515.31;10483365;28;20044;-74
2022/11/22 22:00:25;;;;;;;0.10;0.10;;;;;;;4.77;89.79;99519.72;10510850;28;20040;-73
2022/11/22 22:05:28;;;;;;;0.60;0.35;;;;;;;4.70;89.72;99515.25;10520159;28;20570;-75
2022/11/22 22:10:30;;;;;;;0.45;0.38;;;;;;;4.73;89.61;99512.72;10484824;28;20052;-74
2022/11/22 22:15:32;;;;;;;0.50;0.50;;;;;;;4.74;89.50;99514.47;10519044;28;20102;-73
2022/11/22 22:20:44;;;;;;;2.20;0.82;;;;;;;4.74;89.46;99519.66;10522374;28;20492;-73
2022/11/22 22:25:45;;;;;;;0.50;0.40;;;;;;;4.77;89.26;99535.28;10523364;28;20032;-73
2022/11/22 22:30:47;;;;;;;0.40;0.40;;;;;;;4.85;89.42;99525.06;10522235;28;20051;-73
2022/11/22 22:35:52;;;;;;;1.55;0.52;;;;;;;4.88;89.38;99540.69;10531665;28;20034;-73
2022/11/22 22:41:05;;;;;;;0.52;0.35;;;;;;;4.90;89.32;99532.94;10512615;28;20515;-74
2022/11/22 22:46:19;;;;;;;0.95;0.77;;;;;;;5.00;89.22;99533.97;10532149;28;20517;-74
2022/11/22 22:51:23;;;;;;;0.20;0.20;;;;;;;5.06;89.26;99541.88;10512619;28;20052;-73
2022/11/22 22:56:42;;;;;;;0.47;0.40;;;;;;;5.09;89.02;99542.81;10523955;28;20040;-74
2022/11/22 23:01:45;;;;;;;0.70;0.55;;;;;;;5.08;89.08;99537.59;10494162;28;20059;-74
2022/11/22 23:06:47;;;;;;;0.77;0.40;;;;;;;5.10;89.08;99534.19;10528289;28;20419;-73
2022/11/22 23:17:09;;;;;;;1.38;0.35;;;;;;;5.05;89.21;99534.94;10525733;28;20046;-73
2022/11/22 23:22:10;;;;;;;0.10;0.10;;;;;;;5.14;89.34;99535.97;10506850;28;20039;-74
2022/11/22 23:27:12;;;;;;;0.65;0.65;;;;;;;5.24;89.40;99534.44;10525544;28;20053;-73
2022/11/22 23:32:13;;;;;;;0.32;0.30;;;;;;;5.31;89.36;99530.22;10523901;28;20517;-73
2022/11/22 23:37:15;;;;;;;0.30;0.30;;;;;;;5.30;89.33;99533.69;10505942;28;20048;-74
2022/11/22 23:42:17;;;;;;;0.50;0.38;;;;;;;5.29;89.18;99539.72;10523555;28;20044;-73
2022/11/22 23:47:19;;;;;;;0.77;0.73;;;;;;;5.37;89.63;99538.13;10504898;28;20047;-73
2022/11/22 23:52:21;;;;;;;0.15;0.15;;;;;;;5.35;89.45;99542.44;10524104;28;20043;-73
2022/11/22 23:57:23;;;;;;;0.17;0.17;;;;;;;5.39;89.54;99539.06;10507085;28;20068;-73
